Time;durP1;ratioP1;P1;durP2;ratioP2;P2;SDS_P1;SDS_P2;PMS_P1;PMS_P2;Temp;Humidity;BMP_temperature;BMP_pressure;BME280_temperature;BME280_humidity;BME280_pressure;Samples;Min_cycle;Max_cycle;Signal;HPM_P1;HPM_P2
2022/08/14 15:17:22;;;;;;;;;15.50;13.00;;;;;25.82;54.64;100155.53;5151582;27;45544;-64
2022/08/14 15:19:48;;;;;;;;;14.75;14.25;;;;;25.98;54.57;100156.69;5124652;27;45361;-64
2022/08/14 15:22:15;;;;;;;;;15.25;15.25;;;;;26.11;53.50;100154.38;5117735;27;45467;-64
2022/08/14 15:24:40;;;;;;;;;12.00;12.00;;;;;26.22;53.64;100153.19;5134819;27;45514;-64
2022/08/14 15:27:07;;;;;;;;;11.50;11.25;;;;;26.34;53.00;100151.84;5138490;27;46203;-64
2022/08/14 15:29:38;;;;;;;;;8.75;8.75;;;;;26.44;52.57;100154.44;5136512;27;45397;-64
2022/08/14 15:32:05;;;;;;;;;11.75;10.75;;;;;26.52;51.77;100149.00;5124744;27;45397;-64
2022/08/14 15:34:30;;;;;;;;;10.25;9.25;;;;;26.61;52.38;100148.00;5134193;27;45463;-65
2022/08/14 15:36:56;;;;;;;;;11.00;11.00;;;;;26.69;51.67;100154.53;5115393;27;46133;-65
2022/08/14 15:39:21;;;;;;;;;8.00;8.00;;;;;26.75;51.55;100153.88;5115730;27;45564;-64
2022/08/14 15:41:48;;;;;;;;;8.25;8.25;;;;;26.82;50.93;100149.41;5134409;27;45333;-65
2022/08/14 15:44:14;;;;;;;;;10.75;9.75;;;;;26.88;50.72;100135.06;5137982;27;45389;-65
2022/08/14 15:46:40;;;;;;;;;9.00;7.25;;;;;26.95;50.56;100127.00;5135019;27;46149;-65
2022/08/14 15:49:06;;;;;;;;;8.50;8.50;;;;;27.01;50.14;100115.34;5123295;27;45371;-65
2022/08/14 15:51:33;;;;;;;;;8.75;8.00;;;;;27.06;50.42;100110.22;5117177;27;45396;-65
2022/08/14 15:53:58;;;;;;;;;9.75;9.75;;;;;27.06;50.05;100115.69;5117364;27;45228;-65
2022/08/14 15:56:24;;;;;;;;;7.50;7.50;;;;;27.08;49.82;100123.72;5117287;27;45913;-65
2022/08/14 15:58:49;;;;;;;;;10.00;9.00;;;;;27.11;49.81;100121.50;5116659;27;45276;-65
2022/08/14 16:01:22;;;;;;;;;8.75;8.75;;;;;27.11;49.41;100118.75;5117371;27;45544;-65
2022/08/14 16:03:53;;;;;;;;;9.50;9.50;;;;;27.15;49.30;100124.78;5116089;27;45341;-65
2022/08/14 16:06:25;;;;;;;;;9.00;9.00;;;;;27.14;49.78;100114.84;5128929;27;46235;-65
2022/08/14 16:08:53;;;;;;;;;9.50;8.75;;;;;27.13;49.36;100116.72;5135478;27;45580;-65
2022/08/14 16:11:19;;;;;;;;;9.00;9.00;;;;;27.10;49.67;100100.63;5127519;27;45424;-65
2022/08/14 16:13:45;;;;;;;;;9.75;8.75;;;;;27.14;49.35;100099.25;5116972;27;45445;-65
2022/08/14 16:16:18;;;;;;;;;9.75;9.00;;;;;27.16;49.00;100104.56;5135221;27;45338;-65
2022/08/14 16:18:44;;;;;;;;;9.00;8.00;;;;;27.15;49.29;100102.88;5105446;27;45339;-65
2022/08/14 16:21:11;;;;;;;;;10.25;9.75;;;;;27.16;49.30;100091.72;5103005;27;45342;-65
2022/08/14 16:23:43;;;;;;;;;8.75;8.75;;;;;27.16;49.18;100099.06;5102945;27;45537;-65
2022/08/14 16:26:13;;;;;;;;;9.25;9.25;;;;;27.18;49.04;100091.53;5102975;27;46354;-65
2022/08/14 16:28:40;;;;;;;;;7.50;7.50;;;;;27.19;49.49;100093.25;5102988;27;45169;-65
2022/08/14 16:31:05;;;;;;;;;9.25;8.25;;;;;27.20;49.23;100089.50;5115311;27;45357;-65
2022/08/14 16:33:31;;;;;;;;;9.00;9.00;;;;;27.21;49.08;100095.81;5121205;27;45210;-65
2022/08/14 16:36:00;;;;;;;;;8.25;7.25;;;;;27.25;48.96;100083.47;5109229;27;46157;-65
2022/08/14 16:38:31;;;;;;;;;8.50;6.50;;;;;27.27;49.10;100087.75;5102885;27;45280;-65
2022/08/14 16:41:17;;;;;;;;;9.00;8.00;;;;;27.28;49.00;100089.47;5102920;27;45329;-65
2022/08/14 16:43:46;;;;;;;;;11.00;8.50;;;;;27.27;48.71;100095.13;5102867;27;45302;-65
2022/08/14 16:46:14;;;;;;;;;11.00;11.00;;;;;27.28;48.88;100089.47;5102368;27;46936;-65
2022/08/14 16:48:40;;;;;;;;;9.25;9.25;;;;;27.27;48.47;100090.50;5102802;27;45251;-65
2022/08/14 16:51:05;;;;;;;;;9.25;9.00;;;;;27.29;48.74;100087.63;5102595;27;45235;-65
2022/08/14 16:53:33;;;;;;;;;10.75;9.00;;;;;27.30;48.84;100095.66;5102213;27;45255;-65
2022/08/14 16:56:20;;;;;;;;;10.50;9.25;;;;;27.24;48.85;100092.75;5102426;27;46657;-65
2022/08/14 16:58:48;;;;;;;;;9.00;7.75;;;;;27.24;48.98;100090.84;5101835;27;45506;-65
2022/08/14 17:01:20;;;;;;;;;7.25;7.25;;;;;27.26;48.53;100083.31;5105892;27;45258;-65
2022/08/14 17:03:57;;;;;;;;;9.00;9.00;;;;;27.24;48.73;100082.63;5102369;27;45386;-65
2022/08/14 17:06:34;;;;;;;;;10.00;9.00;;;;;27.22;48.68;100081.94;5101816;27;47089;-65
2022/08/14 17:09:00;;;;;;;;;8.50;8.25;;;;;27.21;48.56;100091.19;5102448;27;45185;-65
2022/08/14 17:11:25;;;;;;;;;8.75;8.00;;;;;27.20;48.25;100080.41;5122787;27;45168;-65
2022/08/14 17:13:51;;;;;;;;;9.75;9.00;;;;;27.24;48.40;100084.53;5123069;27;45578;-65
2022/08/14 17:16:18;;;;;;;;;9.25;8.75;;;;;27.26;48.49;100077.81;5101805;27;46087;-65
2022/08/14 17:18:48;;;;;;;;;8.00;8.00;;;;;27.25;48.48;100080.72;5101186;27;45366;-65
2022/08/14 17:21:23;;;;;;;;;10.25;10.00;;;;;27.24;48.26;100093.59;5109296;27;45236;-65
2022/08/14 17:24:04;;;;;;;;;11.25;10.00;;;;;27.26;48.90;100116.19;5121741;27;45560;-65
2022/08/14 17:26:49;;;;;;;;;6.25;6.25;;;;;27.28;48.70;100141.53;5122666;27;46384;-65
2022/08/14 17:29:24;;;;;;;;;7.75;6.75;;;;;27.25;48.80;100157.44;5121526;27;45506;-65
2022/08/14 17:31:52;;;;;;;;;5.50;5.00;;;;;27.21;49.81;100173.38;5121030;27;45385;-65
2022/08/14 17:34:20;;;;;;;;;4.75;3.75;;;;;27.04;49.37;100199.06;5102267;27;45300;-65
2022/08/14 17:36:52;;;;;;;;;1.75;1.00;;;;;26.77;50.74;100207.41;5101438;27;46187;-65
2022/08/14 17:39:20;;;;;;;;;3.25;3.00;;;;;26.56;50.00;100207.88;5101981;27;45253;-65
2022/08/14 17:41:51;;;;;;;;;4.00;4.00;;;;;26.37;50.76;100192.56;5102012;27;45214;-65
2022/08/14 17:44:38;;;;;;;;;1.25;1.25;;;;;26.11;50.44;100197.25;5101069;27;45470;-65
2022/08/14 17:47:06;;;;;;;;;2.00;2.00;;;;;25.90;51.35;100201.22;5101642;27;46284;-65
2022/08/14 17:49:43;;;;;;;;;1.25;0.25;;;;;25.73;51.76;100208.47;5101841;27;45377;-65
2022/08/14 17:52:11;;;;;;;;;2.00;2.00;;;;;25.57;51.39;100209.22;5101568;27;45405;-65
2022/08/14 17:54:36;;;;;;;;;0.25;0.25;;;;;25.50;52.20;100216.34;5101805;27;45263;-65
2022/08/14 17:57:14;;;;;;;;;3.00;2.00;;;;;25.39;52.53;100203.78;5101534;27;46070;-65
2022/08/14 17:59:42;;;;;;;;;1.00;1.00;;;;;25.31;52.16;100190.94;5101188;27;45311;-65
2022/08/14 18:02:10;;;;;;;;;2.50;2.50;;;;;25.25;53.04;100175.13;5122128;27;45392;-65
2022/08/14 18:04:36;;;;;;;;;3.00;2.25;;;;;25.09;51.98;100164.97;5104283;27;45340;-65
2022/08/14 18:07:11;;;;;;;;;4.25;4.25;;;;;24.92;51.83;100152.16;5100985;27;45611;-65
2022/08/14 18:09:40;;;;;;;;;3.75;2.75;;;;;24.83;52.64;100150.38;5101822;27;45474;-67
2022/08/14 18:12:07;;;;;;;;;4.00;3.00;;;;;24.79;53.17;100149.81;5121231;27;45337;-67
2022/08/14 18:14:36;;;;;;;;;6.50;5.75;;;;;24.74;53.52;100163.97;5116151;27;45456;-67
2022/08/14 18:17:03;;;;;;;;;7.50;6.25;;;;;24.65;53.59;100166.75;5101064;27;46334;-67
2022/08/14 18:19:31;;;;;;;;;1.25;1.25;;;;;24.53;53.96;100147.00;5101213;27;45168;-67
2022/08/14 18:21:59;;;;;;;;;2.50;2.50;;;;;24.47;53.91;100140.28;5101108;27;45444;-67
2022/08/14 18:24:26;;;;;;;;;3.75;3.50;;;;;24.42;54.16;100145.34;5101077;27;45337;-67
2022/08/14 18:26:56;;;;;;;;;5.50;5.00;;;;;24.38;54.34;100147.50;5101114;27;45283;-67
2022/08/14 18:29:23;;;;;;;;;4.50;4.50;;;;;24.33;54.43;100140.81;5102124;27;45508;-67
2022/08/14 18:31:48;;;;;;;;;3.75;3.75;;;;;24.33;54.74;100147.13;5101197;27;45460;-67
2022/08/14 18:34:16;;;;;;;;;3.75;2.00;;;;;24.29;54.49;100153.91;5100937;27;45285;-67
2022/08/14 18:36:50;;;;;;;;;2.75;2.75;;;;;24.24;55.05;100153.50;5100845;27;45436;-67
2022/08/14 18:39:23;;;;;;;;;4.75;3.00;;;;;24.18;55.34;100165.00;5100859;27;45375;-67
2022/08/14 18:41:49;;;;;;;;;2.25;2.25;;;;;24.12;55.23;100158.28;5101227;27;45351;-67
2022/08/14 18:44:14;;;;;;;;;4.00;3.00;;;;;24.07;55.11;100151.56;5100947;27;45330;-67
2022/08/14 18:47:08;;;;;;;;;4.00;4.00;;;;;24.03;55.32;100146.44;5082319;27;47130;-67
2022/08/14 18:49:51;;;;;;;;;4.25;2.75;;;;;24.01;55.50;100143.00;5109669;27;45427;-66
2022/08/14 18:52:19;;;;;;;;;4.00;4.00;;;;;23.96;55.17;100150.78;5121219;27;45190;-66
2022/08/14 18:54:45;;;;;;;;;4.25;3.00;;;;;23.97;55.64;100148.91;5121382;27;45581;-66
2022/08/14 18:57:10;;;;;;;;;6.00;6.00;;;;;23.96;55.22;100153.50;5121347;27;46179;-66
2022/08/14 18:59:41;;;;;;;;;4.00;4.00;;;;;23.94;56.16;100162.81;5120192;27;45305;-66
2022/08/14 19:02:27;;;;;;;;;4.25;4.25;;;;;23.92;56.16;100170.31;5119096;27;45251;-66
2022/08/14 19:04:58;;;;;;;;;5.25;5.25;;;;;23.90;56.21;100175.91;5106756;27;45449;-66
2022/08/14 19:07:24;;;;;;;;;7.00;5.00;;;;;23.89;56.52;100179.66;5102128;27;45252;-66
2022/08/14 19:09:55;;;;;;;;;3.25;2.75;;;;;23.91;56.58;100180.34;5102486;27;45176;-66
2022/08/14 19:13:04;;;;;;;;;6.25;4.50;;;;;23.90;56.46;100192.25;5121389;27;45350;-66
2022/08/14 19:15:33;;;;;;;;;3.50;3.50;;;;;23.88;56.87;100188.81;5107037;27;45431;-66
2022/08/14 19:17:59;;;;;;;;;6.00;4.50;;;;;23.79;56.84;100182.38;5100260;27;46177;-66
2022/08/14 19:20:25;;;;;;;;;5.00;5.00;;;;;23.82;57.07;100194.84;5100165;27;45323;-66
2022/08/14 19:22:54;;;;;;;;;7.25;6.75;;;;;23.83;57.02;100194.72;5100364;27;45268;-66
2022/08/14 19:26:02;;;;;;;;;6.25;5.25;;;;;23.82;57.22;100192.13;5100271;27;45370;-66
2022/08/14 19:28:41;;;;;;;;;6.00;5.75;;;;;23.78;57.05;100190.69;5006302;28;45260;-66
2022/08/14 19:31:24;;;;;;;;;8.50;6.50;;;;;23.76;57.01;100198.16;5113988;27;45382;-66
2022/08/14 19:34:16;;;;;;;;;5.00;5.00;;;;;23.75;57.54;100201.88;5121108;27;45377;-66
2022/08/14 19:36:48;;;;;;;;;7.00;7.00;;;;;23.74;57.61;100206.50;5095259;27;45378;-66
2022/08/14 19:39:14;;;;;;;;;4.00;4.00;;;;;23.74;57.21;100209.22;5102071;27;46048;-66
2022/08/14 19:41:40;;;;;;;;;6.25;6.25;;;;;23.68;57.01;100207.91;5111400;27;45293;-66
2022/08/14 19:44:09;;;;;;;;;7.00;7.00;;;;;23.71;57.52;100227.72;5120781;27;45265;-66
2022/08/14 19:46:34;;;;;;;;;5.00;5.00;;;;;23.72;57.50;100207.63;5120704;27;45567;-66
2022/08/14 19:49:01;;;;;;;;;7.25;7.00;;;;;23.73;57.55;100206.63;5120610;27;45458;-66
2022/08/14 19:51:27;;;;;;;;;6.75;6.75;;;;;23.75;57.75;100223.69;5119945;27;45321;-67
2022/08/14 19:53:57;;;;;;;;;9.75;8.00;;;;;23.72;57.84;100208.47;5124323;27;45340;-66
2022/08/14 19:56:23;;;;;;;;;8.50;7.50;;;;;23.71;58.17;100212.22;5124263;27;45413;-66
2022/08/14 19:58:50;;;;;;;;;7.50;7.50;;;;;23.65;58.13;100213.66;5123980;27;45357;-66
2022/08/14 20:01:27;;;;;;;;;9.00;6.25;;;;;23.64;58.07;100230.19;5124118;27;45554;-66
2022/08/14 20:03:54;;;;;;;;;8.50;8.25;;;;;23.63;58.10;100234.75;5124451;27;45324;-66
2022/08/14 20:06:20;;;;;;;;;8.25;7.25;;;;;23.68;57.91;100242.50;5121790;27;45435;-66
2022/08/14 20:08:56;;;;;;;;;11.25;9.00;;;;;23.66;58.26;100231.75;5122253;27;47167;-66
2022/08/14 20:11:28;;;;;;;;;6.00;6.00;;;;;23.65;58.49;100243.63;5121304;27;45614;-66
2022/08/14 20:14:11;;;;;;;;;7.25;7.25;;;;;23.66;58.19;100247.25;5103618;27;45252;-66
2022/08/14 20:16:39;;;;;;;;;7.00;7.00;;;;;23.64;58.16;100254.69;5118740;27;45258;-66
2022/08/14 20:19:14;;;;;;;;;9.25;8.25;;;;;23.59;58.25;100249.69;5103138;27;46397;-66
2022/08/14 20:21:44;;;;;;;;;7.25;7.25;;;;;23.57;58.30;100259.88;5102701;27;45230;-66
2022/08/14 20:24:31;;;;;;;;;7.50;6.00;;;;;23.53;58.03;100252.97;5103388;27;45261;-66
2022/08/14 20:27:37;;;;;;;;;4.75;4.75;;;;;23.49;57.94;100241.53;5102970;27;45567;-66
2022/08/14 20:30:11;;;;;;;;;8.25;8.25;;;;;23.48;58.21;100242.50;5105369;27;46371;-66
2022/08/14 20:32:47;;;;;;;;;7.25;6.50;;;;;23.47;58.28;100237.22;5102852;27;45527;-66
2022/08/14 20:35:23;;;;;;;;;8.00;7.00;;;;;23.46;58.29;100233.63;5103156;27;45349;-66
2022/08/14 20:37:58;;;;;;;;;11.00;10.50;;;;;23.45;58.53;100228.34;5102549;27;45539;-66
2022/08/14 20:40:23;;;;;;;;;8.75;8.50;;;;;23.42;58.45;100226.78;5103098;27;45343;-66
2022/08/14 20:45:45;;;;;;;;;11.00;10.25;;;;;23.42;58.63;100220.44;5123599;27;45354;-66
2022/08/14 20:48:13;;;;;;;;;7.50;7.50;;;;;23.40;58.95;100217.03;5123476;27;45399;-66
2022/08/14 20:50:38;;;;;;;;;10.50;9.50;;;;;23.41;59.08;100213.31;5122993;27;46159;-66
2022/08/14 20:53:25;;;;;;;;;12.25;11.00;;;;;23.41;58.96;100216.88;5123081;27;45423;-66
2022/08/14 20:55:51;;;;;;;;;13.50;10.50;;;;;23.40;59.59;100204.25;5123409;27;45261;-66
2022/08/14 20:58:32;;;;;;;;;15.25;12.75;;;;;23.44;59.39;100188.50;5123150;27;45592;-66
2022/08/14 21:01:04;;;;;;;;;12.50;12.25;;;;;23.41;59.14;100183.34;5122135;27;46149;-66
2022/08/14 21:03:56;;;;;;;;;11.00;11.00;;;;;23.41;59.41;100183.34;5105979;27;45399;-66
2022/08/14 21:06:27;;;;;;;;;9.25;9.00;;;;;23.30;58.97;100168.91;5101557;27;45422;-66
2022/08/14 21:08:54;;;;;;;;;9.75;9.75;;;;;23.37;59.46;100182.78;5102770;27;45214;-66
2022/08/14 21:11:22;;;;;;;;;11.75;10.50;;;;;23.38;59.09;100180.91;5117264;27;46288;-66
2022/08/14 21:13:49;;;;;;;;;13.00;11.75;;;;;23.38;59.89;100178.19;5122967;27;45270;-66
2022/08/14 21:16:17;;;;;;;;;10.50;10.50;;;;;23.33;60.09;100173.16;5102386;27;45480;-66
2022/08/14 21:18:44;;;;;;;;;10.25;10.25;;;;;23.34;60.09;100184.91;5102360;27;45398;-66
2022/08/14 21:21:12;;;;;;;;;11.50;11.50;;;;;23.33;59.91;100186.78;5101870;27;46369;-66
2022/08/14 21:23:43;;;;;;;;;11.00;10.50;;;;;23.35;59.62;100197.53;5102253;27;45335;-66
2022/08/14 21:26:10;;;;;;;;;10.00;10.00;;;;;23.36;59.85;100200.13;5102164;27;45329;-66
2022/08/14 21:28:36;;;;;;;;;16.75;12.00;;;;;23.36;59.75;100199.25;5102151;27;45324;-66
2022/08/14 21:31:03;;;;;;;;;12.25;11.25;;;;;23.33;60.20;100196.84;5116570;27;45529;-67
2022/08/14 21:33:29;;;;;;;;;11.75;10.75;;;;;23.30;60.13;100197.97;5121606;27;45413;-67
2022/08/14 21:35:57;;;;;;;;;11.50;11.00;;;;;23.28;60.28;100206.28;5104969;27;45176;-67
2022/08/14 21:38:23;;;;;;;;;10.50;10.25;;;;;23.29;59.87;100197.13;5101928;27;45240;-67
2022/08/14 21:40:51;;;;;;;;;13.00;13.00;;;;;23.27;60.44;100199.13;5101847;27;45630;-67
2022/08/14 21:43:20;;;;;;;;;11.50;11.50;;;;;23.31;60.48;100205.16;5101445;27;45327;-67
2022/08/14 21:45:49;;;;;;;;;12.25;11.25;;;;;23.30;60.04;100201.56;5101871;27;45246;-66
2022/08/14 21:48:15;;;;;;;;;11.75;10.25;;;;;23.28;60.29;100195.38;5101860;27;45403;-66
2022/08/14 21:50:44;;;;;;;;;12.25;11.00;;;;;23.26;59.84;100211.00;5101361;27;46152;-66
2022/08/14 21:53:13;;;;;;;;;12.25;10.75;;;;;23.26;60.61;100202.00;5101768;27;45232;-66
2022/08/14 21:55:39;;;;;;;;;13.50;12.00;;;;;23.24;60.66;100201.28;5101631;27;45504;-66
2022/08/14 21:58:06;;;;;;;;;15.75;15.00;;;;;23.25;61.02;100203.00;5101545;27;45380;-66
2022/08/14 22:00:33;;;;;;;;;13.50;12.00;;;;;23.23;60.88;100194.97;5113603;27;47164;-66
2022/08/14 22:02:58;;;;;;;;;13.00;12.00;;;;;23.22;61.04;100197.84;5122332;27;45421;-66
2022/08/14 22:05:24;;;;;;;;;12.00;11.00;;;;;23.20;61.17;100197.97;5102055;27;46056;-66
2022/08/14 22:07:49;;;;;;;;;13.75;12.75;;;;;23.18;60.86;100199.13;5101197;27;45247;-66
2022/08/14 22:10:18;;;;;;;;;17.50;16.50;;;;;23.17;60.97;100197.41;5107134;27;45357;-67
2022/08/14 22:12:43;;;;;;;;;20.00;16.00;;;;;23.19;60.94;100189.94;5121975;27;45552;-67
2022/08/14 22:15:11;;;;;;;;;14.00;14.00;;;;;23.16;61.19;100202.00;5110292;27;45467;-67
2022/08/14 22:17:38;;;;;;;;;15.50;15.00;;;;;23.17;61.03;100198.28;5101042;27;45330;-67
2022/08/14 22:20:09;;;;;;;;;13.25;13.25;;;;;23.17;61.41;100194.69;5101100;27;46346;-67
2022/08/14 22:22:36;;;;;;;;;16.50;16.50;;;;;23.16;61.17;100192.97;5100832;27;45341;-67
2022/08/14 22:25:01;;;;;;;;;15.25;15.25;;;;;23.18;61.17;100194.53;5100667;27;45341;-67
2022/08/14 22:27:29;;;;;;;;;14.25;13.75;;;;;23.17;61.27;100189.25;5101082;27;45233;-67
2022/08/14 22:29:54;;;;;;;;;17.50;15.00;;;;;23.17;61.43;100195.56;5108587;27;46380;-67
2022/08/14 22:32:20;;;;;;;;;13.50;13.50;;;;;23.15;61.68;100196.69;5106235;27;48995;-67
2022/08/14 22:34:45;;;;;;;;;13.50;12.25;;;;;23.11;61.83;100188.81;5101312;27;45546;-67
2022/08/14 22:37:10;;;;;;;;;15.75;13.25;;;;;23.09;61.63;100181.81;5100520;27;46681;-67
2022/08/14 22:39:36;;;;;;;;;16.25;16.25;;;;;23.11;61.53;100185.25;5100942;27;45985;-67
2022/08/14 22:42:01;;;;;;;;;17.75;17.00;;;;;23.11;61.89;100186.09;5100939;27;45223;-67
2022/08/14 22:44:30;;;;;;;;;16.00;15.00;;;;;23.10;62.33;100183.50;5101274;27;45220;-67
2022/08/14 22:46:56;;;;;;;;;17.50;16.50;;;;;23.08;62.13;100183.66;5100762;27;45377;-66
2022/08/14 22:49:24;;;;;;;;;13.75;13.00;;;;;23.06;61.92;100176.63;5101040;27;45315;-66
2022/08/14 22:51:51;;;;;;;;;17.75;16.25;;;;;23.10;62.28;100181.66;5100336;27;45400;-66
2022/08/14 22:54:16;;;;;;;;;16.75;15.75;;;;;23.13;62.16;100184.06;5100982;27;45417;-66
2022/08/14 22:56:42;;;;;;;;;15.50;14.50;;;;;23.10;62.45;100186.25;5100835;27;45194;-66
2022/08/14 22:59:08;;;;;;;;;16.00;15.50;;;;;23.10;62.18;100180.78;5101130;27;51457;-66
2022/08/14 23:01:40;;;;;;;;;15.00;15.00;;;;;23.13;61.95;100185.94;5119961;27;45338;-66
2022/08/14 23:04:06;;;;;;;;;14.00;12.75;;;;;23.15;61.91;100189.38;5100748;27;45355;-66
2022/08/14 23:06:31;;;;;;;;;15.25;14.50;;;;;23.16;62.00;100191.13;5112427;27;45526;-66
2022/08/14 23:08:58;;;;;;;;;12.25;12.25;;;;;23.19;62.27;100195.38;5112238;27;45823;-66
2022/08/14 23:11:23;;;;;;;;;16.00;12.75;;;;;23.19;62.32;100198.13;5115832;27;45226;-66
2022/08/14 23:13:49;;;;;;;;;19.75;17.25;;;;;23.24;62.24;100195.84;5121693;27;45465;-66
2022/08/14 23:16:17;;;;;;;;;16.25;14.50;;;;;23.20;62.01;100189.81;5099737;27;45255;-66
2022/08/14 23:18:44;;;;;;;;;11.25;11.25;;;;;23.24;61.52;100187.69;5100445;27;46953;-66
2022/08/14 23:21:11;;;;;;;;;14.75;10.75;;;;;23.32;61.88;100195.94;5099332;27;45310;-66
2022/08/14 23:23:37;;;;;;;;;15.25;15.25;;;;;23.33;62.07;100191.38;5082199;27;45321;-66
2022/08/14 23:26:07;;;;;;;;;13.50;13.50;;;;;23.31;61.95;100186.09;5100046;27;45452;-66
2022/08/14 23:28:38;;;;;;;;;14.00;13.00;;;;;23.31;62.00;100180.63;5103580;27;46045;-66
2022/08/14 23:31:05;;;;;;;;;14.25;13.00;;;;;23.31;61.79;100176.03;5118686;27;45663;-66
2022/08/14 23:33:31;;;;;;;;;15.00;14.00;;;;;23.34;61.85;100179.47;5124718;27;45317;-66
2022/08/14 23:35:57;;;;;;;;;14.50;14.00;;;;;23.35;61.95;100178.47;5106646;27;45318;-66
2022/08/14 23:38:25;;;;;;;;;18.75;17.75;;;;;23.34;62.07;100171.28;5103990;27;45357;-66
2022/08/14 23:40:51;;;;;;;;;15.50;14.75;;;;;23.29;62.07;100178.06;5103931;27;45227;-66
2022/08/14 23:43:16;;;;;;;;;13.50;11.75;;;;;23.23;61.98;100165.00;5104091;27;45247;-66
2022/08/14 23:45:47;;;;;;;;;14.50;13.50;;;;;23.25;62.21;100168.44;5103659;27;45571;-66
2022/08/14 23:48:20;;;;;;;;;16.25;14.25;;;;;23.25;62.13;100173.03;5103606;27;45310;-66
2022/08/14 23:50:46;;;;;;;;;13.50;12.25;;;;;23.26;62.22;100169.31;5103294;27;45464;-66
2022/08/14 23:53:26;;;;;;;;;14.50;12.00;;;;;23.26;62.12;100166.59;5104117;27;45290;-66
2022/08/14 23:55:53;;;;;;;;;15.75;15.25;;;;;23.26;62.58;100170.19;5103778;27;45375;-66
2022/08/14 23:58:19;;;;;;;;;14.25;14.25;;;;;23.23;62.51;100167.75;5103426;27;46225;-66
